Time;durP1;ratioP1;P1;durP2;ratioP2;P2;SDS_P1;SDS_P2;PMS_P1;PMS_P2;Temp;Humidity;BMP_temperature;BMP_pressure;BME280_temperature;BME280_humidity;BME280_pressure;Samples;Min_cycle;Max_cycle;Signal;HPM_P1;HPM_P2
2021/05/31 00:01:01;;;;;;;10.63;8.25;;;;;;;30.00;58.47;100727.06;5073253;27;69162;-33
2021/05/31 00:03:32;;;;;;;8.45;7.65;;;;;;;30.09;58.56;100730.38;5072437;27;66341;-32
2021/05/31 00:06:02;;;;;;;11.15;7.35;;;;;;;30.17;58.80;100732.81;5073835;27;69160;-34
2021/05/31 00:08:33;;;;;;;7.93;7.32;;;;;;;30.25;59.14;100732.53;5071756;27;64938;-33
2021/05/31 00:11:04;;;;;;;8.48;7.70;;;;;;;30.33;60.11;100727.94;5062094;28;69007;-33
2021/05/31 00:13:34;;;;;;;11.00;7.32;;;;;;;30.41;60.15;100733.88;5069263;27;66257;-35
2021/05/31 00:16:05;;;;;;;12.00;8.05;;;;;;;30.47;60.48;100740.28;5067985;28;69180;-34
2021/05/31 00:18:36;;;;;;;12.57;7.88;;;;;;;30.53;60.08;100739.41;5066481;27;65613;-35
2021/05/31 00:21:06;;;;;;;8.98;7.72;;;;;;;30.60;61.25;100734.78;5061570;28;69660;-33
2021/05/31 00:23:37;;;;;;;14.52;8.20;;;;;;;30.65;60.67;100743.06;5067438;28;65285;-32
2021/05/31 00:26:08;;;;;;;18.60;7.93;;;;;;;30.70;61.13;100748.66;5067713;27;69916;-32
2021/05/31 00:28:38;;;;;;;15.32;7.63;;;;;;;30.76;61.10;100746.06;5069443;27;65528;-32
2021/05/31 00:31:09;;;;;;;9.65;7.68;;;;;;;30.84;61.09;100757.50;5065413;27;70014;-32
2021/05/31 00:33:40;;;;;;;15.60;7.85;;;;;;;30.90;61.11;100751.19;5072894;27;66162;-32
2021/05/31 00:36:11;;;;;;;9.93;7.70;;;;;;;30.95;61.35;100753.22;5065984;27;70109;-32
2021/05/31 00:38:42;;;;;;;10.20;7.40;;;;;;;31.04;61.11;100756.47;5069796;28;66040;-32
2021/05/31 00:41:12;;;;;;;10.18;6.97;;;;;;;31.09;61.60;100757.47;5070199;27;70046;-33
2021/05/31 00:43:43;;;;;;;10.38;7.40;;;;;;;31.10;61.72;100761.81;5070357;27;65983;-32
2021/05/31 00:46:14;;;;;;;8.45;7.50;;;;;;;31.21;61.61;100770.25;5068694;28;70293;-32
2021/05/31 00:48:45;;;;;;;15.98;7.38;;;;;;;31.19;61.56;100764.22;5074133;27;66006;-32
2021/05/31 00:51:15;;;;;;;8.85;7.55;;;;;;;31.30;62.19;100769.72;5073400;27;70114;-32
2021/05/31 00:53:46;;;;;;;7.85;7.13;;;;;;;31.35;62.07;100767.16;5074050;27;66886;-33
2021/05/31 00:56:16;;;;;;;8.80;7.45;;;;;;;31.34;61.88;100756.53;5075164;27;69053;-32
2021/05/31 00:58:47;;;;;;;10.57;7.13;;;;;;;31.39;61.78;100754.00;5066811;28;65969;-32
2021/05/31 01:01:21;;;;;;;7.88;7.22;;;;;;;31.44;62.00;100770.44;5073538;27;70217;-32
2021/05/31 01:03:51;;;;;;;9.70;6.82;;;;;;;31.53;62.10;100771.78;5075017;28;65950;-32
2021/05/31 01:06:29;;;;;;;7.55;7.00;;;;;;;31.59;61.94;100786.28;5075412;27;69593;-32
2021/05/31 01:09:24;;;;;;;7.90;7.13;;;;;;;31.61;62.02;100785.00;5075795;28;65474;-32
2021/05/31 01:12:08;;;;;;;11.13;6.85;;;;;;;31.60;62.16;100772.53;5071489;28;70705;-33
2021/05/31 01:15:19;;;;;;;8.95;8.07;;;;;;;31.64;62.88;100772.06;5075985;27;66170;-33
2021/05/31 01:18:04;;;;;;;7.50;6.90;;;;;;;31.67;62.51;100768.91;5066272;27;69176;-33
2021/05/31 01:20:56;;;;;;;14.02;7.00;;;;;;;31.75;62.24;100765.88;5074450;27;66341;-33
2021/05/31 01:23:29;;;;;;;8.00;7.43;;;;;;;31.50;62.43;100718.00;5070973;28;70767;-32
2021/05/31 01:26:21;;;;;;;7.72;7.00;;;;;;;31.46;62.74;100721.41;5071932;27;66182;-33
2021/05/31 01:29:03;;;;;;;8.30;7.50;;;;;;;31.85;62.26;100779.72;5073013;27;69763;-32
2021/05/31 01:32:02;;;;;;;7.95;7.07;;;;;;;31.83;62.51;100777.22;5073339;28;65886;-33
2021/05/31 01:34:36;;;;;;;9.30;7.85;;;;;;;31.88;61.87;100768.41;5071869;27;70399;-33
2021/05/31 01:37:22;;;;;;;10.52;6.97;;;;;;;31.91;62.55;100783.41;5064303;28;65126;-33
2021/05/31 01:39:56;;;;;;;16.15;7.03;;;;;;;31.87;62.12;100761.31;5071520;28;69855;-33
2021/05/31 01:42:28;;;;;;;7.30;6.72;;;;;;;31.97;62.28;100767.06;5074581;27;66488;-33
2021/05/31 01:45:00;;;;;;;8.93;6.72;;;;;;;31.69;62.16;100721.50;5066899;27;68982;-33
2021/05/31 01:47:32;;;;;;;11.48;6.75;;;;;;;32.02;62.22;100780.75;5076714;27;65645;-33
2021/05/31 01:50:05;;;;;;;7.20;6.65;;;;;;;32.08;62.09;100772.75;5074346;27;70276;-33
2021/05/31 01:52:37;;;;;;;6.90;6.32;;;;;;;31.73;62.39;100705.59;5068480;28;66026;-33
2021/05/31 01:55:09;;;;;;;7.18;6.50;;;;;;;32.13;62.61;100775.63;5071166;28;69345;-34
2021/05/31 01:57:46;;;;;;;7.43;6.82;;;;;;;32.11;61.98;100762.25;5062279;28;65993;-33
2021/05/31 02:00:18;;;;;;;7.95;7.15;;;;;;;32.19;62.37;100758.41;5071671;27;69428;-33
2021/05/31 02:02:52;;;;;;;10.18;7.15;;;;;;;32.20;62.52;100760.84;5064221;27;66835;-33
2021/05/31 02:05:33;;;;;;;;;;;;;;;32.04;62.83;100756.94;5064024;28;69149;-32
2021/05/31 02:08:04;;;;;;;226.63;200.55;;;;;;;32.16;62.05;100745.28;5068123;28;66371;-34
2021/05/31 02:10:35;;;;;;;1999.90;999.90;;;;;;;32.26;62.50;100748.25;5067371;28;68904;-34
2021/05/31 02:13:07;;;;;;;1999.90;999.90;;;;;;;32.33;62.49;100754.41;5061498;28;66097;-34
2021/05/31 02:15:58;;;;;;;1999.90;999.90;;;;;;;32.31;62.32;100756.53;5072366;27;68954;-34
2021/05/31 02:18:53;;;;;;;1999.90;999.90;;;;;;;32.22;62.82;100752.50;5070761;28;65618;-33
2021/05/31 02:21:26;;;;;;;1984.20;999.90;;;;;;;32.28;62.12;100757.81;5067548;28;69309;-34
2021/05/31 02:23:57;;;;;;;;;;;;;;;32.08;62.74;100751.88;5068143;27;66014;-33
2021/05/31 02:26:28;;;;;;;1675.47;999.90;;;;;;;32.22;61.76;100741.63;5073664;27;69847;-34
2021/05/31 02:28:59;;;;;;;1503.88;999.90;;;;;;;32.14;61.02;100739.25;5072657;28;65618;-33
2021/05/31 02:31:31;;;;;;;1742.10;999.90;;;;;;;31.52;61.33;100634.56;5062088;27;69418;-33
2021/05/31 02:34:02;;;;;;;1740.47;999.90;;;;;;;32.26;60.94;100735.53;5061398;28;65907;-33
2021/05/31 02:36:34;;;;;;;1645.72;999.90;;;;;;;32.33;60.88;100737.31;5066179;28;69824;-34
2021/05/31 02:39:05;;;;;;;1572.78;999.90;;;;;;;32.37;61.27;100739.28;5067512;27;65502;-33
2021/05/31 02:41:35;;;;;;;1563.90;999.90;;;;;;;32.33;60.96;100727.25;5065263;27;69020;-34
2021/05/31 02:44:06;;;;;;;1459.80;998.17;;;;;;;32.44;60.65;100731.88;5065879;28;65448;-33
2021/05/31 02:46:36;;;;;;;1436.03;982.88;;;;;;;32.45;61.07;100721.84;5062094;27;69579;-33
2021/05/31 02:49:11;;;;;;;1392.65;951.08;;;;;;;32.54;60.91;100738.63;5057789;27;65916;-34
2021/05/31 02:51:42;;;;;;;1322.63;926.53;;;;;;;32.54;61.18;100741.34;5071231;27;69790;-32
2021/05/31 02:54:14;;;;;;;1267.57;897.22;;;;;;;32.58;60.36;100734.41;5071629;27;65841;-33
2021/05/31 02:56:45;;;;;;;1186.15;846.60;;;;;;;32.61;60.75;100726.59;5057686;27;70069;-33
2021/05/31 02:59:17;;;;;;;964.92;734.03;;;;;;;32.66;60.67;100726.72;5074418;28;65912;-34
2021/05/31 03:01:50;;;;;;;984.45;726.25;;;;;;;32.65;60.92;100713.38;5065924;27;67659;-33
2021/05/31 03:04:23;;;;;;;916.75;663.45;;;;;;;32.71;60.50;100728.75;5063892;28;65866;-33
2021/05/31 03:06:54;;;;;;;768.38;538.78;;;;;;;32.74;60.67;100725.56;5063699;27;68079;-33
2021/05/31 03:09:24;;;;;;;695.60;461.20;;;;;;;32.70;60.69;100710.78;5062577;28;66150;-33
2021/05/31 03:11:56;;;;;;;633.40;402.45;;;;;;;32.77;60.66;100716.94;5069028;28;68778;-32
2021/05/31 03:14:29;;;;;;;530.15;318.80;;;;;;;32.82;60.39;100708.03;5071029;27;65905;-32
2021/05/31 03:16:59;;;;;;;412.88;206.45;;;;;;;32.89;60.64;100720.44;5066150;28;70002;-33
2021/05/31 03:19:30;;;;;;;312.67;143.68;;;;;;;32.91;60.57;100715.59;5060552;28;66180;-32
2021/05/31 03:22:00;;;;;;;231.43;116.47;;;;;;;32.94;60.49;100722.47;5069768;27;69489;-32
2021/05/31 03:24:31;;;;;;;122.68;69.65;;;;;;;32.89;60.32;100706.88;5064097;28;66241;-33
2021/05/31 03:27:02;;;;;;;69.85;37.55;;;;;;;32.97;60.27;100713.84;5069011;27;70043;-33
2021/05/31 03:29:37;;;;;;;47.42;25.98;;;;;;;32.77;60.32;100675.38;5069421;27;65406;-33
2021/05/31 03:32:08;;;;;;;44.38;23.75;;;;;;;33.02;60.56;100707.72;5072209;27;70406;-34
2021/05/31 03:34:39;;;;;;;31.03;18.63;;;;;;;33.03;60.69;100703.94;5067247;27;65078;-33
2021/05/31 03:37:11;;;;;;;30.48;18.65;;;;;;;32.99;60.44;100691.84;5068055;28;69682;-33
2021/05/31 03:39:45;;;;;;;27.95;17.40;;;;;;;33.07;60.36;100699.66;5066798;27;66025;-34
2021/05/31 03:42:16;;;;;;;27.63;15.73;;;;;;;33.11;60.48;100700.84;5057741;28;69944;-33
2021/05/31 03:44:50;;;;;;;22.80;14.65;;;;;;;33.14;60.54;100700.34;5062167;27;65668;-33
2021/05/31 03:47:22;;;;;;;24.30;14.70;;;;;;;33.18;60.57;100690.66;5068535;27;69309;-33
2021/05/31 03:49:55;;;;;;;22.67;14.35;;;;;;;33.10;60.38;100661.16;5062947;28;66036;-33
2021/05/31 03:52:28;;;;;;;22.88;13.38;;;;;;;33.27;59.87;100678.34;5067412;27;70082;-33
2021/05/31 03:54:59;;;;;;;19.50;12.55;;;;;;;33.27;59.76;100672.91;5062210;27;66030;-33
2021/05/31 03:57:32;;;;;;;22.15;13.55;;;;;;;33.33;60.00;100671.13;5062377;27;70138;-32
2021/05/31 04:00:10;;;;;;;16.73;12.65;;;;;;;33.34;59.83;100673.56;5059979;27;66356;-33
2021/05/31 04:02:43;;;;;;;19.98;13.05;;;;;;;33.35;59.92;100679.88;5068390;28;69842;-34
2021/05/31 04:05:18;;;;;;;19.60;12.50;;;;;;;33.34;59.99;100673.56;5058921;27;65959;-34
2021/05/31 04:13:30;;;;;;;15.80;11.10;;;;;;;33.33;60.17;100671.94;5069492;28;70241;-33
2021/05/31 04:16:00;;;;;;;13.63;10.45;;;;;;;33.34;60.16;100659.16;5063951;27;65186;-33
2021/05/31 04:18:34;;;;;;;16.38;11.18;;;;;;;33.38;59.87;100663.06;5063501;27;71063;-33
2021/05/31 04:21:05;;;;;;;12.05;9.93;;;;;;;33.43;59.82;100654.16;5064828;28;67157;-33
2021/05/31 04:23:36;;;;;;;14.27;10.68;;;;;;;33.37;59.75;100639.63;5074102;27;71058;-34
2021/05/31 04:26:08;;;;;;;12.50;9.80;;;;;;;33.46;60.08;100648.22;5069130;27;66549;-33
2021/05/31 04:28:40;;;;;;;12.10;10.17;;;;;;;33.36;60.10;100627.94;5071164;28;69705;-34
2021/05/31 04:31:11;;;;;;;14.73;9.30;;;;;;;33.23;59.58;100611.91;5071893;28;65686;-33
2021/05/31 04:33:42;;;;;;;11.70;9.80;;;;;;;33.43;59.63;100633.22;5066088;28;69917;-34
2021/05/31 04:36:12;;;;;;;10.90;9.27;;;;;;;33.51;59.87;100632.00;5070500;27;66897;-33
2021/05/31 04:38:44;;;;;;;13.20;9.07;;;;;;;33.55;59.74;100635.94;5079925;27;69890;-33
2021/05/31 04:41:15;;;;;;;16.40;8.67;;;;;;;33.59;59.48;100626.22;5075378;28;65249;-34
2021/05/31 04:43:46;;;;;;;13.70;9.10;;;;;;;33.63;59.43;100627.38;5077968;27;69221;-33
2021/05/31 04:46:20;;;;;;;10.30;8.75;;;;;;;33.70;59.25;100611.72;5076778;28;65950;-33
2021/05/31 04:48:53;;;;;;;;;;;;;;;33.51;59.51;100605.63;5075630;28;70350;-34
2021/05/31 04:51:25;;;;;;;12.38;9.05;;;;;;;33.69;59.23;100607.34;5071057;28;66661;-33
2021/05/31 04:53:58;;;;;;;12.20;8.45;;;;;;;33.74;59.03;100604.72;5079278;27;69925;-33
2021/05/31 04:56:29;;;;;;;13.02;8.27;;;;;;;33.78;58.81;100591.44;5068247;27;66148;-32
2021/05/31 04:59:00;;;;;;;7.97;7.25;;;;;;;33.82;58.84;100587.16;5069315;28;69866;-33
2021/05/31 05:01:34;;;;;;;14.60;8.40;;;;;;;33.77;58.65;100574.31;5066788;28;65445;-33
2021/05/31 05:04:07;;;;;;;9.30;8.35;;;;;;;33.81;58.39;100586.31;5068785;27;70448;-33
2021/05/31 05:06:39;;;;;;;8.27;7.05;;;;;;;33.83;58.32;100585.28;5078376;27;66117;-34
2021/05/31 05:09:12;;;;;;;9.05;7.22;;;;;;;33.84;58.60;100576.84;5068565;27;69598;-33
2021/05/31 05:11:43;;;;;;;9.13;8.32;;;;;;;33.63;58.23;100540.34;5075124;28;65102;-33
2021/05/31 05:14:14;;;;;;;8.02;7.18;;;;;;;33.90;58.24;100566.88;5076183;28;69115;-33
2021/05/31 05:16:45;;;;;;;9.52;7.35;;;;;;;33.92;58.23;100570.16;5076365;28;66135;-33
2021/05/31 05:19:17;;;;;;;7.68;6.88;;;;;;;33.90;57.88;100562.25;5075793;27;69973;-34
2021/05/31 05:21:47;;;;;;;10.55;7.00;;;;;;;33.89;57.94;100562.50;5065795;28;66200;-33
2021/05/31 05:24:18;;;;;;;10.65;6.93;;;;;;;33.84;58.08;100540.66;5069283;27;69900;-34
2021/05/31 05:26:50;;;;;;;7.82;7.07;;;;;;;33.94;58.01;100559.88;5070953;28;65226;-34
2021/05/31 05:29:24;;;;;;;8.65;6.50;;;;;;;33.99;57.91;100559.91;5069343;27;70045;-32
2021/05/31 05:31:57;;;;;;;7.43;6.72;;;;;;;34.02;57.69;100560.28;5047237;28;66092;-33
2021/05/31 05:34:27;;;;;;;8.25;6.03;;;;;;;34.02;57.56;100549.38;5069253;27;69738;-33
2021/05/31 05:37:10;;;;;;;6.25;5.78;;;;;;;34.06;57.56;100559.81;5064478;27;65167;-33
2021/05/31 05:43:03;;;;;;;8.15;5.85;;;;;;;34.05;57.51;100558.97;5067467;28;66055;-34
2021/05/31 05:46:03;;;;;;;6.78;6.18;;;;;;;34.06;57.59;100557.91;5070763;27;69463;-33
2021/05/31 05:48:36;;;;;;;6.72;6.13;;;;;;;34.07;57.33;100556.81;5071390;27;65218;-33
2021/05/31 05:51:12;;;;;;;8.43;5.90;;;;;;;34.08;57.02;100553.03;5072060;27;70615;-33
2021/05/31 05:53:44;;;;;;;6.78;6.18;;;;;;;34.10;57.24;100545.44;5065509;28;66310;-34
2021/05/31 05:56:22;;;;;;;6.90;6.20;;;;;;;34.14;57.36;100552.03;5066771;28;70145;-34
2021/05/31 05:58:53;;;;;;;6.20;5.70;;;;;;;34.11;57.40;100533.47;5066084;28;66235;-35
2021/05/31 06:01:24;;;;;;;6.78;5.22;;;;;;;34.18;56.99;100536.81;5069114;27;70257;-33
2021/05/31 06:03:57;;;;;;;7.28;5.55;;;;;;;34.21;57.43;100530.91;5064859;28;64959;-33
2021/05/31 06:06:30;;;;;;;6.05;5.45;;;;;;;34.23;57.03;100525.19;5071083;27;68844;-35
2021/05/31 06:09:05;;;;;;;8.70;5.35;;;;;;;34.02;56.98;100480.53;5070436;28;65420;-34
2021/05/31 06:11:36;;;;;;;5.45;5.05;;;;;;;34.01;57.39;100465.25;5073111;27;69273;-33
2021/05/31 06:14:11;;;;;;;6.20;5.57;;;;;;;34.25;56.94;100504.81;5060541;28;65495;-34
2021/05/31 06:16:47;;;;;;;5.50;5.10;;;;;;;34.23;57.09;100496.06;5068404;28;70257;-34
2021/05/31 06:19:21;;;;;;;5.85;5.35;;;;;;;34.31;56.69;100502.97;5071534;28;65125;-33
2021/05/31 06:21:52;;;;;;;;;;;;;;;34.09;57.45;100511.13;5073879;27;70095;-33
2021/05/31 06:24:25;;;;;;;5.30;4.65;;;;;;;34.22;57.01;100488.97;5060327;28;66227;-34
2021/05/31 06:26:59;;;;;;;8.45;4.63;;;;;;;34.34;56.69;100493.47;5065233;28;69484;-34
2021/05/31 06:29:32;;;;;;;6.18;4.68;;;;;;;34.35;56.74;100492.41;5069134;28;65774;-33
2021/05/31 06:32:04;;;;;;;;;;;;;;;34.14;56.89;100481.25;5068364;28;69378;-33
2021/05/31 06:34:34;;;;;;;5.28;4.78;;;;;;;34.37;56.83;100482.06;5073961;27;65963;-35
2021/05/31 06:37:11;;;;;;;4.88;4.47;;;;;;;34.41;56.52;100472.34;5064009;28;70435;-33
2021/05/31 06:39:41;;;;;;;5.10;4.70;;;;;;;34.38;56.45;100461.94;5073050;27;65985;-34
2021/05/31 06:42:17;;;;;;;4.57;4.22;;;;;;;34.38;56.55;100459.22;5065716;28;69208;-33
2021/05/31 06:44:49;;;;;;;4.70;4.18;;;;;;;34.48;56.35;100453.88;5065849;28;65745;-37
2021/05/31 06:47:20;;;;;;;4.88;4.30;;;;;;;34.49;56.05;100455.53;5064793;28;69336;-33
2021/05/31 06:49:53;;;;;;;4.03;3.70;;;;;;;34.50;56.32;100445.47;5068901;27;66237;-33
2021/05/31 06:52:40;;;;;;;4.90;4.43;;;;;;;34.53;55.96;100450.41;5071153;27;70192;-34
2021/05/31 06:55:13;;;;;;;4.63;4.22;;;;;;;34.51;56.14;100442.47;5062868;27;66034;-33
2021/05/31 06:57:47;;;;;;;4.78;4.38;;;;;;;34.59;56.15;100444.78;5066181;28;69888;-33
2021/05/31 07:00:25;;;;;;;6.35;3.88;;;;;;;34.59;55.96;100439.34;5063736;27;65222;-33
2021/05/31 07:02:59;;;;;;;4.55;4.05;;;;;;;34.63;55.84;100442.34;5068057;27;70077;-33
2021/05/31 07:05:30;;;;;;;4.20;3.90;;;;;;;34.68;55.61;100442.41;5064944;27;65232;-34
2021/05/31 07:08:00;;;;;;;3.80;3.50;;;;;;;34.72;55.65;100420.94;5067272;28;69830;-34
2021/05/31 07:10:31;;;;;;;4.10;3.78;;;;;;;34.73;55.79;100422.59;5061171;27;65264;-34
2021/05/31 07:13:04;;;;;;;3.85;3.55;;;;;;;34.75;55.50;100415.00;5071465;27;69294;-34
2021/05/31 07:15:34;;;;;;;;;;;;;;;34.55;55.83;100416.41;5061106;27;66170;-34
2021/05/31 07:18:05;;;;;;;3.72;3.40;;;;;;;34.75;55.40;100404.91;5068686;27;69963;-35
2021/05/31 07:20:40;;;;;;;3.83;3.60;;;;;;;34.82;55.44;100399.22;5068061;27;66117;-34
2021/05/31 07:23:11;;;;;;;4.18;3.88;;;;;;;34.83;55.00;100398.16;5068873;27;70551;-34
2021/05/31 07:25:42;;;;;;;;;;;;;;;34.64;55.31;100392.28;5068592;27;66222;-33
2021/05/31 07:28:15;;;;;;;6.65;3.80;;;;;;;34.67;54.82;100370.78;5062248;27;70851;-33
2021/05/31 07:30:46;;;;;;;3.78;3.20;;;;;;;34.88;55.27;100381.84;5071224;28;65425;-33
2021/05/31 07:33:18;;;;;;;3.72;3.42;;;;;;;34.89;55.14;100378.06;5065484;27;69081;-35
2021/05/31 07:35:51;;;;;;;6.90;3.67;;;;;;;34.91;54.89;100368.53;5066577;27;65215;-33
2021/05/31 07:38:22;;;;;;;3.78;3.47;;;;;;;34.92;54.72;100356.53;5064114;28;70001;-34
2021/05/31 07:40:54;;;;;;;3.63;3.33;;;;;;;34.95;54.45;100355.19;5072599;28;65927;-33
2021/05/31 07:43:24;;;;;;;3.50;3.20;;;;;;;34.96;54.85;100351.38;5059640;27;71684;-32
2021/05/31 07:45:59;;;;;;;4.75;3.60;;;;;;;34.97;54.45;100354.97;5069698;27;66521;-33
2021/05/31 07:48:30;;;;;;;3.65;3.35;;;;;;;34.97;54.81;100355.78;5066829;28;69005;-34
2021/05/31 07:51:17;;;;;;;3.33;3.03;;;;;;;34.98;54.48;100357.41;5064078;28;66069;-33
2021/05/31 07:53:53;;;;;;;3.38;3.08;;;;;;;34.96;54.21;100356.84;5071484;28;69926;-33
2021/05/31 07:56:27;;;;;;;3.38;3.17;;;;;;;35.00;54.62;100354.44;5065520;27;65364;-33
2021/05/31 07:58:57;;;;;;;3.50;3.20;;;;;;;34.88;53.98;100338.25;5070529;27;69208;-34
2021/05/31 08:01:28;;;;;;;5.00;3.45;;;;;;;35.05;54.10;100358.00;5068680;27;65629;-33
2021/05/31 08:04:00;;;;;;;3.40;3.20;;;;;;;35.06;53.95;100359.69;5063355;28;69522;-34
2021/05/31 08:06:31;;;;;;;7.68;2.78;;;;;;;35.05;54.39;100338.94;5065698;28;66298;-34
2021/05/31 08:09:03;;;;;;;3.88;3.20;;;;;;;34.79;53.93;100274.41;5066045;28;70139;-34
2021/05/31 08:11:38;;;;;;;3.50;3.20;;;;;;;35.09;54.30;100322.91;5073765;28;65902;-34
2021/05/31 08:14:09;;;;;;;3.33;3.13;;;;;;;34.99;54.24;100307.25;5069577;27;69880;-33
2021/05/31 08:16:40;;;;;;;4.38;3.60;;;;;;;35.06;54.17;100307.91;5058409;28;66720;-33
2021/05/31 08:19:11;;;;;;;3.70;3.43;;;;;;;35.03;54.39;100311.13;5062835;27;69001;-34
2021/05/31 08:21:44;;;;;;;3.20;3.00;;;;;;;35.07;54.18;100320.44;5071006;28;65906;-33
2021/05/31 08:24:15;;;;;;;3.40;3.17;;;;;;;35.08;54.06;100313.09;5068252;27;69982;-34
2021/05/31 08:26:46;;;;;;;3.55;3.17;;;;;;;35.07;53.93;100317.69;5062614;27;65876;-34
2021/05/31 08:29:18;;;;;;;4.53;3.10;;;;;;;35.08;54.16;100327.53;5062828;27;69865;-33
2021/05/31 08:31:50;;;;;;;3.67;3.38;;;;;;;35.06;54.08;100307.91;5067349;28;65093;-34
2021/05/31 08:34:23;;;;;;;3.40;3.17;;;;;;;35.09;54.05;100321.00;5067133;27;69793;-33
2021/05/31 08:36:54;;;;;;;4.85;3.20;;;;;;;35.06;53.75;100313.34;5069022;28;66277;-34
2021/05/31 08:39:25;;;;;;;3.20;3.00;;;;;;;35.10;53.91;100329.97;5076090;27;68965;-34
2021/05/31 08:41:55;;;;;;;10.80;3.17;;;;;;;35.09;54.21;100328.34;5070361;27;65485;-33
2021/05/31 08:44:31;;;;;;;3.92;3.55;;;;;;;35.01;53.83;100318.72;5063391;27;69239;-34
2021/05/31 08:47:03;;;;;;;3.60;3.40;;;;;;;34.60;54.21;100260.38;5059497;28;66798;-33
2021/05/31 08:49:34;;;;;;;3.42;3.17;;;;;;;35.10;54.12;100325.38;5063703;28;69786;-34
2021/05/31 08:52:06;;;;;;;3.83;3.15;;;;;;;35.12;54.02;100334.09;5068028;27;65212;-34
2021/05/31 08:54:37;;;;;;;4.10;3.30;;;;;;;35.12;54.21;100339.53;5061909;28;69232;-32
2021/05/31 08:57:07;;;;;;;3.45;3.15;;;;;;;35.13;53.78;100341.22;5056067;28;65410;-32
2021/05/31 08:59:37;;;;;;;3.20;2.90;;;;;;;34.91;54.03;100294.16;5060889;27;69919;-33
2021/05/31 09:02:10;;;;;;;3.28;3.00;;;;;;;35.16;54.11;100333.56;5064569;28;65416;-33
2021/05/31 09:04:54;;;;;;;3.35;3.05;;;;;;;35.13;53.90;100334.91;5062296;27;70186;-33
2021/05/31 09:07:24;;;;;;;4.38;3.05;;;;;;;35.15;54.13;100324.56;5054356;28;65965;-34
2021/05/31 09:09:55;;;;;;;3.50;3.20;;;;;;;35.17;54.21;100332.50;5062480;27;70381;-33
2021/05/31 09:12:36;;;;;;;3.03;2.83;;;;;;;35.19;53.80;100322.13;5070624;27;65330;-32
2021/05/31 09:15:14;;;;;;;3.10;2.87;;;;;;;34.83;53.88;100264.66;5069099;27;69925;-34
2021/05/31 09:17:47;;;;;;;3.05;2.80;;;;;;;35.20;53.87;100318.34;5066556;27;65302;-36
2021/05/31 09:20:19;;;;;;;3.58;3.28;;;;;;;35.19;53.63;100322.13;5071803;27;69997;-34
2021/05/31 09:22:55;;;;;;;3.28;2.97;;;;;;;35.19;53.77;100333.03;5069934;27;66225;-34
2021/05/31 09:25:31;;;;;;;3.50;3.20;;;;;;;35.13;53.61;100334.91;5062000;27;69981;-33
2021/05/31 09:28:20;;;;;;;3.53;3.22;;;;;;;35.17;53.99;100346.13;5076228;28;66474;-34
2021/05/31 09:30:51;;;;;;;3.00;2.80;;;;;;;34.92;53.66;100312.94;5073849;27;69813;-33
2021/05/31 09:33:23;;;;;;;3.30;3.00;;;;;;;35.17;53.94;100352.41;5066934;28;66734;-34
2021/05/31 09:35:59;;;;;;;4.53;3.25;;;;;;;35.18;53.86;100354.03;5074166;28;70580;-33
2021/05/31 09:38:30;;;;;;;3.25;2.92;;;;;;;35.16;54.09;100350.78;5074065;28;65797;-33
2021/05/31 09:41:00;;;;;;;3.42;3.05;;;;;;;35.15;54.19;100354.56;5068219;28;70205;-33
2021/05/31 09:43:37;;;;;;;3.25;2.95;;;;;;;35.18;53.66;100358.66;5068525;27;66450;-33
2021/05/31 09:46:07;;;;;;;3.53;3.17;;;;;;;35.16;54.03;100349.91;5074340;28;70103;-33
2021/05/31 09:48:38;;;;;;;3.30;3.00;;;;;;;35.17;53.91;100351.59;5071581;27;65788;-33
2021/05/31 09:51:13;;;;;;;3.55;3.22;;;;;;;35.14;53.89;100352.94;5073031;27;69242;-34
2021/05/31 09:53:46;;;;;;;3.35;3.05;;;;;;;34.95;54.00;100311.59;5068303;28;65456;-33
2021/05/31 09:56:17;;;;;;;3.53;3.22;;;;;;;35.16;53.77;100347.19;5076354;27;69896;-33
2021/05/31 09:59:02;;;;;;;3.35;3.05;;;;;;;35.16;53.42;100344.47;5074128;27;66211;-33
2021/05/31 10:01:43;;;;;;;4.15;3.83;;;;;;;35.11;53.48;100346.09;5072883;27;69137;-33
2021/05/31 10:04:24;;;;;;;6.68;3.35;;;;;;;35.07;53.71;100334.06;5065821;28;65924;-33
2021/05/31 10:09:47;;;;;;;3.78;3.10;;;;;;;35.07;54.18;100328.59;5081811;27;65990;-33
2021/05/31 10:12:18;;;;;;;3.20;3.00;;;;;;;35.10;53.93;100336.28;5075353;27;69637;-33
2021/05/31 10:14:50;;;;;;;3.42;3.20;;;;;;;35.10;53.69;100333.56;5075878;27;66088;-34
2021/05/31 10:17:24;;;;;;;3.05;2.85;;;;;;;34.85;53.83;100297.88;5074294;27;69923;-34
2021/05/31 10:19:55;;;;;;;4.32;2.90;;;;;;;35.08;54.21;100349.34;5072313;27;65796;-33
2021/05/31 10:22:32;;;;;;;3.25;2.95;;;;;;;35.08;53.78;100349.34;5069584;27;44110;-34
2021/05/31 10:25:06;;;;;;;3.15;2.95;;;;;;;34.81;53.78;100307.69;5071712;28;65923;-33
2021/05/31 10:27:39;;;;;;;3.58;3.28;;;;;;;35.07;54.05;100352.31;5075639;27;69642;-33
2021/05/31 10:30:15;;;;;;;3.97;3.00;;;;;;;35.07;53.66;100352.31;5065751;28;66015;-33
2021/05/31 10:32:45;;;;;;;5.13;3.33;;;;;;;35.00;53.85;100349.78;5065504;27;69798;-34
2021/05/31 10:35:21;;;;;;;;;;;;;;;34.79;54.58;100362.41;5073528;28;65253;-33
2021/05/31 10:37:57;;;;;;;3.53;3.33;;;;;;;35.00;54.33;100368.06;5068646;27;69546;-34
2021/05/31 10:40:36;;;;;;;4.07;3.15;;;;;;;35.00;54.18;100373.50;5075491;28;66297;-34
2021/05/31 10:43:09;;;;;;;3.38;3.15;;;;;;;34.96;54.03;100366.91;5069689;28;69471;-34
2021/05/31 10:45:41;;;;;;;4.00;3.60;;;;;;;34.99;53.91;100369.94;5070030;27;65142;-34
2021/05/31 10:48:22;;;;;;;4.70;3.35;;;;;;;34.89;55.80;100364.44;5075417;27;70081;-38
2021/05/31 10:51:00;;;;;;;6.43;3.28;;;;;;;34.77;56.14;100358.31;5073433;27;65123;-37
2021/05/31 10:53:35;;;;;;;3.25;3.05;;;;;;;34.65;57.14;100361.22;5074921;27;71148;-38
2021/05/31 10:56:05;;;;;;;8.13;3.47;;;;;;;34.53;57.43;100358.63;5078726;27;66401;-37
2021/05/31 10:58:52;;;;;;;6.05;3.63;;;;;;;34.39;58.10;100349.22;5074127;27;69931;-36
2021/05/31 11:01:28;;;;;;;5.55;3.72;;;;;;;34.38;58.97;100355.75;5074185;27;66467;-37
2021/05/31 11:04:10;;;;;;;7.90;4.30;;;;;;;34.35;58.92;100356.25;5064344;28;70029;-36
2021/05/31 11:06:43;;;;;;;5.63;4.25;;;;;;;34.30;59.04;100353.47;5058112;27;66694;-36
2021/05/31 11:09:17;;;;;;;9.30;4.90;;;;;;;34.22;59.10;100341.97;5067884;27;69480;-35
2021/05/31 11:11:53;;;;;;;8.65;4.95;;;;;;;34.28;59.09;100351.03;5064072;28;66182;-37
2021/05/31 11:14:44;;;;;;;7.70;4.75;;;;;;;34.13;60.23;100354.41;5065272;28;70009;-36
2021/05/31 11:17:16;;;;;;;5.43;4.90;;;;;;;33.86;59.79;100289.03;5067382;28;65992;-36
2021/05/31 11:19:50;;;;;;;9.07;5.68;;;;;;;34.13;59.32;100329.91;5067232;27;69397;-36
2021/05/31 11:22:31;;;;;;;6.55;5.35;;;;;;;33.93;59.48;100294.25;5064474;27;66481;-34
2021/05/31 11:25:06;;;;;;;9.77;5.82;;;;;;;33.90;59.59;100294.78;5068282;27;69125;-35
2021/05/31 11:27:40;;;;;;;10.20;6.72;;;;;;;34.11;59.62;100337.50;5065237;28;65447;-36
2021/05/31 11:30:24;;;;;;;7.82;6.25;;;;;;;34.16;59.77;100343.00;5063142;28;68845;-37
2021/05/31 11:32:58;;;;;;;6.45;6.00;;;;;;;34.16;59.47;100347.63;5065139;27;65547;-37
2021/05/31 11:35:30;;;;;;;18.95;6.63;;;;;;;34.17;59.48;100355.53;5073364;28;70412;-37
2021/05/31 11:38:07;;;;;;;11.23;6.47;;;;;;;34.12;58.79;100352.75;5072935;27;65937;-37
2021/05/31 11:40:40;;;;;;;13.95;7.18;;;;;;;33.78;58.18;100297.66;5070609;27;69087;-37
2021/05/31 11:43:14;;;;;;;14.85;8.02;;;;;;;34.06;58.55;100364.66;5063523;28;65994;-36
2021/05/31 11:45:47;;;;;;;20.98;7.15;;;;;;;34.07;57.88;100365.47;5072650;28;70380;-36
2021/05/31 11:48:18;;;;;;;9.80;7.50;;;;;;;34.01;57.94;100361.84;5074021;27;66221;-36
2021/05/31 11:50:49;;;;;;;10.18;7.22;;;;;;;33.99;57.29;100358.53;5070685;28;69856;-35
2021/05/31 11:53:19;;;;;;;10.25;7.18;;;;;;;33.98;57.17;100371.34;5066274;28;66007;-37
2021/05/31 11:55:50;;;;;;;10.00;7.13;;;;;;;33.84;57.44;100350.22;5070151;27;69929;-37
2021/05/31 11:58:21;;;;;;;6.97;6.32;;;;;;;34.00;57.92;100373.81;5073170;27;65224;-37
2021/05/31 12:00:52;;;;;;;12.32;7.63;;;;;;;34.00;58.16;100373.81;5070210;27;70109;-37